Time;durP1;ratioP1;P1;durP2;ratioP2;P2;SDS_P1;SDS_P2;PMS_P1;PMS_P2;Temp;Humidity;BMP_temperature;BMP_pressure;BME280_temperature;BME280_humidity;BME280_pressure;Samples;Min_cycle;Max_cycle;Signal;HPM_P1;HPM_P2
2023/04/12 00:00:18;;;;;;;2.03;1.42;;;8.50;99.90;;;;;;4962525;28;20097;-65
2023/04/12 00:02:43;;;;;;;1.98;1.17;;;8.60;99.90;;;;;;4965041;28;20149;-64
2023/04/12 00:05:11;;;;;;;1.55;1.27;;;8.70;99.90;;;;;;4945627;28;21035;-65
2023/04/12 00:07:41;;;;;;;1.60;1.15;;;8.60;99.90;;;;;;4969662;28;20030;-64
2023/04/12 00:10:08;;;;;;;1.55;1.25;;;8.60;99.90;;;;;;4972217;28;20034;-69
2023/04/12 00:12:34;;;;;;;0.95;0.95;;;8.60;99.90;;;;;;4965494;28;20140;-66
2023/04/12 00:15:00;;;;;;;2.10;1.25;;;8.60;99.90;;;;;;4970200;28;20124;-65
2023/04/12 00:17:26;;;;;;;1.38;1.05;;;8.70;99.90;;;;;;4958729;28;20038;-65
2023/04/12 00:19:52;;;;;;;1.50;1.10;;;8.70;99.90;;;;;;4967012;28;20046;-65
2023/04/12 00:22:17;;;;;;;3.28;1.23;;;8.70;99.90;;;;;;4967461;28;20573;-65
2023/04/12 00:24:43;;;;;;;1.08;0.98;;;8.70;99.90;;;;;;4965805;28;20069;-65
2023/04/12 00:27:09;;;;;;;1.50;1.00;;;8.70;99.90;;;;;;4953969;28;20961;-66
2023/04/12 00:29:34;;;;;;;0.80;0.80;;;8.70;99.90;;;;;;4951909;28;20816;-65
2023/04/12 00:32:02;;;;;;;2.05;1.20;;;8.70;99.90;;;;;;4974152;28;20038;-65
2023/04/12 00:34:28;;;;;;;1.40;0.82;;;8.60;99.90;;;;;;4964929;28;20511;-66
2023/04/12 00:36:54;;;;;;;1.65;1.27;;;8.50;99.90;;;;;;4961568;28;20050;-66
2023/04/12 00:39:20;;;;;;;1.73;0.90;;;8.50;99.90;;;;;;4955541;28;20054;-65
2023/04/12 00:41:45;;;;;;;1.10;1.00;;;8.50;99.90;;;;;;4972411;28;20053;-66
2023/04/12 00:44:11;;;;;;;1.88;1.33;;;8.50;99.90;;;;;;4966280;28;20037;-65
2023/04/12 00:46:37;;;;;;;1.85;0.95;;;8.60;99.90;;;;;;4962874;28;20311;-68
2023/04/12 00:49:03;;;;;;;1.20;1.10;;;8.60;99.90;;;;;;4971117;28;20463;-68
2023/04/12 00:51:32;;;;;;;1.45;1.00;;;8.70;99.90;;;;;;4958948;28;20035;-68
2023/04/12 00:54:00;;;;;;;1.35;1.10;;;8.70;99.90;;;;;;4973388;28;20041;-68
2023/04/12 00:56:27;;;;;;;1.05;0.80;;;8.70;99.90;;;;;;4980199;28;20030;-68
2023/04/12 00:58:56;;;;;;;1.02;0.73;;;8.70;99.90;;;;;;4976134;28;20062;-67
2023/04/12 01:01:22;;;;;;;2.30;1.00;;;8.70;99.90;;;;;;4964184;28;20042;-68
2023/04/12 01:03:52;;;;;;;1.30;0.80;;;8.70;99.90;;;;;;4965501;28;20038;-69
2023/04/12 01:06:31;;;;;;;0.90;0.90;;;8.70;99.90;;;;;;4969505;28;20573;-68
2023/04/12 01:09:12;;;;;;;1.15;0.90;;;8.70;99.90;;;;;;4972401;28;20535;-69
2023/04/12 01:11:45;;;;;;;1.27;0.85;;;8.60;99.90;;;;;;4978805;28;20483;-68
2023/04/12 01:14:32;;;;;;;1.33;0.88;;;8.60;99.90;;;;;;4968015;28;20046;-68
2023/04/12 01:17:03;;;;;;;1.23;1.13;;;8.70;99.90;;;;;;4974733;28;20034;-68
2023/04/12 01:19:35;;;;;;;0.83;0.80;;;8.60;99.90;;;;;;4971878;28;20114;-68
2023/04/12 01:22:20;;;;;;;4.93;1.10;;;8.50;99.90;;;;;;4983243;28;20093;-68
2023/04/12 01:25:02;;;;;;;0.65;0.63;;;8.40;99.90;;;;;;4966961;28;20046;-67
2023/04/12 01:27:49;;;;;;;1.08;0.98;;;8.50;99.90;;;;;;4978705;28;20030;-68
2023/04/12 01:30:18;;;;;;;2.78;1.00;;;8.50;99.90;;;;;;4989316;28;20046;-69
2023/04/12 01:32:49;;;;;;;3.30;1.05;;;8.60;99.90;;;;;;4981749;28;20030;-68
2023/04/12 01:35:16;;;;;;;4.90;2.77;;;8.50;99.90;;;;;;4985638;28;20149;-67
2023/04/12 01:37:43;;;;;;;3.25;1.40;;;8.50;99.90;;;;;;4983965;28;20061;-68
2023/04/12 01:40:11;;;;;;;1.70;1.20;;;8.40;99.90;;;;;;4986091;28;20102;-68
2023/04/12 01:42:37;;;;;;;2.15;1.10;;;8.40;99.90;;;;;;4987456;28;20038;-68
2023/04/12 01:45:03;;;;;;;1.30;1.20;;;8.20;99.90;;;;;;4992063;28;20038;-69
2023/04/12 01:47:29;;;;;;;1.25;0.98;;;8.20;99.90;;;;;;4985451;28;20035;-67
2023/04/12 01:50:22;;;;;;;4.65;1.50;;;8.10;99.90;;;;;;4988409;28;20178;-68
2023/04/12 01:53:31;;;;;;;2.55;1.63;;;8.20;99.90;;;;;;4980162;28;20050;-68
2023/04/12 01:56:00;;;;;;;1.88;1.30;;;8.20;99.90;;;;;;4932150;29;20040;-68
2023/04/12 01:58:27;;;;;;;2.10;1.27;;;8.20;99.90;;;;;;4969447;28;20026;-68
2023/04/12 02:00:54;;;;;;;1.27;1.17;;;8.10;99.90;;;;;;4987745;28;20031;-68
2023/04/12 02:03:21;;;;;;;3.83;1.27;;;8.10;99.90;;;;;;4988004;28;20035;-64
2023/04/12 02:05:49;;;;;;;0.80;0.80;;;8.10;99.90;;;;;;4985423;28;20038;-67
2023/04/12 02:08:15;;;;;;;1.15;1.05;;;8.10;99.90;;;;;;4988196;28;20320;-68
2023/04/12 02:10:41;;;;;;;1.75;1.27;;;8.10;99.90;;;;;;4977167;28;20029;-69
2023/04/12 02:13:07;;;;;;;1.05;0.98;;;8.10;99.90;;;;;;4964581;28;20479;-67
2023/04/12 02:15:33;;;;;;;1.77;1.25;;;8.10;99.90;;;;;;4974224;28;20065;-68
2023/04/12 02:17:59;;;;;;;2.10;1.00;;;8.20;99.90;;;;;;4974979;28;20062;-68
2023/04/12 02:20:25;;;;;;;0.82;0.80;;;8.20;99.90;;;;;;4964742;28;20294;-68
2023/04/12 02:22:52;;;;;;;2.05;0.82;;;8.20;99.90;;;;;;4959054;28;20042;-65
2023/04/12 02:25:17;;;;;;;1.60;0.90;;;8.40;99.90;;;;;;4971070;28;20046;-65
2023/04/12 02:27:45;;;;;;;1.85;0.57;;;8.30;99.90;;;;;;4963942;28;20656;-65
2023/04/12 02:30:11;;;;;;;0.85;0.60;;;8.30;99.90;;;;;;4970208;28;20031;-65
2023/04/12 02:32:42;;;;;;;1.25;0.75;;;8.30;99.90;;;;;;4967839;28;20046;-65
2023/04/12 02:35:09;;;;;;;0.87;0.70;;;8.40;99.90;;;;;;4964237;28;20121;-65
2023/04/12 02:37:35;;;;;;;1.55;0.68;;;8.50;99.90;;;;;;4968957;28;20148;-66
2023/04/12 02:40:03;;;;;;;3.95;3.25;;;8.50;99.90;;;;;;4971784;28;20521;-66
2023/04/12 02:42:29;;;;;;;1.67;1.13;;;8.50;99.90;;;;;;4976146;28;20027;-65
2023/04/12 02:44:55;;;;;;;1.23;1.00;;;8.50;99.90;;;;;;4968974;28;20049;-65
2023/04/12 02:47:20;;;;;;;2.60;1.08;;;8.50;99.90;;;;;;4952153;28;20070;-65
2023/04/12 02:49:46;;;;;;;1.00;0.90;;;8.60;99.90;;;;;;4965764;28;20042;-65
2023/04/12 02:52:12;;;;;;;0.70;0.60;;;8.40;99.90;;;;;;4973777;28;20042;-65
2023/04/12 02:54:38;;;;;;;0.70;0.63;;;8.40;99.90;;;;;;4967172;28;20150;-65
2023/04/12 02:57:03;;;;;;;1.10;0.70;;;8.40;99.90;;;;;;4954788;28;20068;-65
2023/04/12 02:59:29;;;;;;;1.67;0.88;;;8.40;99.90;;;;;;4970506;28;20125;-64
2023/04/12 03:01:55;;;;;;;0.75;0.75;;;8.50;99.90;;;;;;4967945;28;20118;-65
2023/04/12 03:04:21;;;;;;;0.82;0.70;;;8.50;99.90;;;;;;4968957;28;20034;-65
2023/04/12 03:06:53;;;;;;;1.02;0.90;;;8.50;99.90;;;;;;4963321;28;20106;-65
2023/04/12 03:09:19;;;;;;;1.85;0.90;;;8.40;99.90;;;;;;4988183;28;21304;-65
2023/04/12 03:11:45;;;;;;;2.72;1.10;;;8.40;99.90;;;;;;4964339;28;20032;-65
2023/04/12 03:14:11;;;;;;;1.05;0.90;;;8.40;99.90;;;;;;4972733;28;20053;-64
2023/04/12 03:16:37;;;;;;;1.13;0.90;;;8.50;99.90;;;;;;4968483;28;20043;-65
2023/04/12 03:19:03;;;;;;;1.00;0.90;;;8.50;99.90;;;;;;4961298;28;20598;-65
2023/04/12 03:21:28;;;;;;;2.38;0.90;;;8.50;99.90;;;;;;4973428;28;20096;-69
2023/04/12 03:23:54;;;;;;;1.65;1.00;;;8.50;99.90;;;;;;4974279;28;20034;-69
2023/04/12 03:26:19;;;;;;;1.85;0.85;;;8.50;99.90;;;;;;4966028;28;20054;-69
2023/04/12 03:28:46;;;;;;;2.53;0.95;;;8.50;99.90;;;;;;4968161;28;20776;-69
2023/04/12 03:31:12;;;;;;;1.77;1.00;;;8.40;99.90;;;;;;4963335;28;20047;-69
2023/04/12 03:33:38;;;;;;;1.88;0.70;;;8.40;99.90;;;;;;4966447;28;20046;-68
2023/04/12 03:36:05;;;;;;;1.95;0.77;;;8.40;99.90;;;;;;4965555;28;20093;-68
2023/04/12 03:38:30;;;;;;;1.92;0.98;;;8.40;99.90;;;;;;4967302;28;20081;-68
2023/04/12 03:40:56;;;;;;;2.47;0.98;;;8.40;99.90;;;;;;4972597;28;20579;-69
2023/04/12 03:43:21;;;;;;;1.00;0.90;;;8.30;99.90;;;;;;4975900;28;20042;-68
2023/04/12 03:45:48;;;;;;;0.80;0.80;;;8.30;99.90;;;;;;4971238;28;20384;-68
2023/04/12 03:48:13;;;;;;;0.80;0.80;;;8.20;99.90;;;;;;4967867;28;20037;-69
2023/04/12 03:50:43;;;;;;;0.93;0.90;;;8.20;99.90;;;;;;4968105;28;20042;-68
2023/04/12 03:53:10;;;;;;;0.70;0.70;;;8.10;99.90;;;;;;4968160;28;20035;-69
2023/04/12 03:55:36;;;;;;;1.95;0.70;;;8.10;99.90;;;;;;4969959;28;20112;-69
2023/04/12 03:58:02;;;;;;;0.95;0.70;;;8.10;99.90;;;;;;4966184;28;20492;-69
2023/04/12 04:00:30;;;;;;;1.73;1.10;;;8.10;99.90;;;;;;4966444;28;20522;-69
2023/04/12 04:03:02;;;;;;;1.55;1.15;;;8.10;99.90;;;;;;4967780;28;20054;-68
2023/04/12 04:05:31;;;;;;;3.78;1.00;;;8.10;99.90;;;;;;4951746;28;20911;-68
2023/04/12 04:08:01;;;;;;;1.58;0.80;;;8.10;99.90;;;;;;4966102;28;20279;-69
2023/04/12 04:10:29;;;;;;;1.90;0.80;;;8.10;99.90;;;;;;4979621;28;20069;-68
2023/04/12 04:12:55;;;;;;;1.92;1.02;;;8.10;99.90;;;;;;4981734;28;20034;-68
2023/04/12 04:15:21;;;;;;;1.38;0.82;;;8.10;99.90;;;;;;4969684;28;20038;-68
2023/04/12 04:17:47;;;;;;;1.88;1.10;;;8.10;99.90;;;;;;4965547;28;20080;-68
2023/04/12 04:20:13;;;;;;;1.05;0.60;;;8.20;99.90;;;;;;4975918;28;20419;-68
2023/04/12 04:22:41;;;;;;;1.02;0.77;;;8.30;99.90;;;;;;4975687;28;20034;-68
2023/04/12 04:25:07;;;;;;;0.75;0.60;;;8.30;99.90;;;;;;4968846;28;20499;-69
2023/04/12 04:27:33;;;;;;;1.10;1.00;;;8.20;99.90;;;;;;4973909;28;20556;-71
2023/04/12 04:30:01;;;;;;;1.95;0.70;;;8.20;99.90;;;;;;4959609;28;20049;-70
2023/04/12 04:32:27;;;;;;;0.68;0.55;;;8.20;99.90;;;;;;4968948;28;20119;-70
2023/04/12 04:35:00;;;;;;;0.90;0.70;;;8.20;99.90;;;;;;4943502;28;20160;-70
2023/04/12 04:37:28;;;;;;;1.40;0.88;;;8.30;99.90;;;;;;4960701;28;20118;-70
2023/04/12 04:39:53;;;;;;;2.15;0.98;;;8.30;99.90;;;;;;4932283;28;20062;-64
2023/04/12 04:42:20;;;;;;;1.75;1.17;;;8.30;99.90;;;;;;4963908;28;20074;-65
2023/04/12 04:44:47;;;;;;;1.40;0.70;;;8.40;99.90;;;;;;4965511;28;20062;-64
2023/04/12 04:47:12;;;;;;;1.05;0.68;;;8.40;99.90;;;;;;4971968;28;20088;-65
2023/04/12 04:49:38;;;;;;;0.93;0.73;;;8.50;99.90;;;;;;4975306;28;20563;-65
2023/04/12 04:52:06;;;;;;;1.42;0.73;;;8.50;99.90;;;;;;4968082;28;20688;-65
2023/04/12 04:54:31;;;;;;;3.00;0.95;;;8.50;99.90;;;;;;4966217;28;20030;-65
2023/04/12 04:56:58;;;;;;;0.63;0.60;;;8.60;99.90;;;;;;4968517;28;20120;-65
2023/04/12 04:59:23;;;;;;;1.08;0.80;;;8.60;99.90;;;;;;4965722;28;20047;-65
2023/04/12 05:01:51;;;;;;;1.17;0.47;;;8.60;99.90;;;;;;4959809;28;20077;-65
2023/04/12 05:04:16;;;;;;;0.93;0.57;;;8.70;99.90;;;;;;4976046;28;20192;-66
2023/04/12 05:06:42;;;;;;;1.35;0.65;;;8.70;99.90;;;;;;4956486;28;20571;-66
2023/04/12 05:09:08;;;;;;;1.85;0.57;;;8.70;99.90;;;;;;4952537;28;20042;-66
2023/04/12 05:11:36;;;;;;;1.42;0.68;;;8.80;99.90;;;;;;4959948;28;20063;-65
2023/04/12 05:14:01;;;;;;;0.60;0.60;;;8.80;99.90;;;;;;4959751;28;20054;-65
2023/04/12 05:16:27;;;;;;;1.42;0.60;;;8.90;99.90;;;;;;4966830;28;20134;-66
2023/04/12 05:18:53;;;;;;;1.83;0.98;;;8.80;99.90;;;;;;4967239;28;20062;-66
2023/04/12 05:21:18;;;;;;;2.78;1.05;;;8.70;99.90;;;;;;4963551;28;20039;-66
2023/04/12 05:23:45;;;;;;;1.83;0.88;;;8.80;99.90;;;;;;4962343;28;20134;-66
2023/04/12 05:26:11;;;;;;;1.75;1.15;;;8.80;99.90;;;;;;4969926;28;20039;-65
2023/04/12 05:28:37;;;;;;;1.30;0.73;;;8.90;99.90;;;;;;4984552;28;20039;-65
2023/04/12 05:31:03;;;;;;;2.17;0.80;;;8.90;99.90;;;;;;4962489;28;20046;-66
2023/04/12 05:33:30;;;;;;;1.70;0.85;;;8.90;99.90;;;;;;4965436;28;20682;-66
2023/04/12 05:35:56;;;;;;;1.25;0.70;;;9.00;99.90;;;;;;4968912;28;20081;-66
2023/04/12 05:38:21;;;;;;;2.42;0.82;;;9.10;99.90;;;;;;4972046;28;20141;-67
2023/04/12 05:40:48;;;;;;;1.75;0.90;;;9.20;99.90;;;;;;4964520;28;20149;-67
2023/04/12 05:43:14;;;;;;;2.05;0.60;;;9.30;99.90;;;;;;4975653;28;20061;-68
2023/04/12 05:45:40;;;;;;;1.60;0.50;;;9.40;99.90;;;;;;4976875;28;20057;-68
2023/04/12 05:48:06;;;;;;;1.38;1.08;;;9.50;99.90;;;;;;4974627;28;20385;-68
2023/04/12 05:50:32;;;;;;;2.08;1.00;;;9.40;99.90;;;;;;4978607;28;20054;-67
2023/04/12 05:53:00;;;;;;;0.95;0.73;;;9.40;99.90;;;;;;4984589;28;20066;-67
2023/04/12 05:55:27;;;;;;;1.90;1.15;;;9.50;99.90;;;;;;4980285;28;20030;-68
2023/04/12 05:57:53;;;;;;;2.47;1.20;;;9.60;99.90;;;;;;4975900;28;20046;-68
2023/04/12 06:00:20;;;;;;;1.85;0.88;;;9.60;99.90;;;;;;4970056;28;20050;-68
2023/04/12 06:02:46;;;;;;;2.10;1.02;;;9.60;99.90;;;;;;4969718;28;20441;-68
2023/04/12 06:05:12;;;;;;;1.85;0.73;;;9.60;99.90;;;;;;4974992;28;21063;-68
2023/04/12 06:07:40;;;;;;;1.30;0.80;;;9.80;99.90;;;;;;4969711;28;20562;-68
2023/04/12 06:10:07;;;;;;;1.98;0.98;;;9.90;99.90;;;;;;4977029;28;20031;-67
2023/04/12 06:12:33;;;;;;;0.80;0.77;;;10.00;99.90;;;;;;4981244;28;20042;-68
2023/04/12 06:14:59;;;;;;;1.20;0.63;;;10.10;99.90;;;;;;4979732;28;20510;-67
2023/04/12 06:17:25;;;;;;;1.77;0.95;;;10.20;99.90;;;;;;4950508;28;20055;-68
2023/04/12 06:19:50;;;;;;;1.58;0.90;;;10.30;99.90;;;;;;4954937;28;20171;-68
2023/04/12 06:22:16;;;;;;;2.83;0.95;;;10.40;99.90;;;;;;4964244;28;20035;-68
2023/04/12 06:24:41;;;;;;;2.22;0.70;;;10.50;99.90;;;;;;4963102;28;20026;-67
2023/04/12 06:27:07;;;;;;;1.95;0.65;;;10.60;99.90;;;;;;4970829;28;20038;-67
2023/04/12 06:29:33;;;;;;;2.28;0.80;;;10.80;99.90;;;;;;4963004;28;20029;-64
2023/04/12 06:31:59;;;;;;;0.70;0.70;;;10.90;99.90;;;;;;4967482;28;20034;-64
2023/04/12 06:34:25;;;;;;;2.03;0.70;;;10.80;99.90;;;;;;4956796;28;20057;-65
2023/04/12 06:36:50;;;;;;;1.15;0.88;;;10.80;99.90;;;;;;4961334;28;20678;-65
2023/04/12 06:39:16;;;;;;;1.83;0.80;;;10.90;99.90;;;;;;4965831;28;20130;-65
2023/04/12 06:41:46;;;;;;;1.67;0.80;;;11.00;99.90;;;;;;4954891;28;20578;-65
2023/04/12 06:44:12;;;;;;;2.47;0.80;;;11.00;99.90;;;;;;4960405;28;20049;-65
2023/04/12 06:46:37;;;;;;;2.42;0.85;;;11.10;99.90;;;;;;4977890;28;20446;-65
2023/04/12 06:49:03;;;;;;;4.28;0.88;;;11.20;99.90;;;;;;4976441;28;20138;-66
2023/04/12 06:51:29;;;;;;;24.75;16.23;;;11.30;99.90;;;;;;4967388;28;20050;-66
2023/04/12 06:53:56;;;;;;;4.32;2.05;;;11.40;99.90;;;;;;4957467;28;20161;-67
2023/04/12 06:56:22;;;;;;;10.77;5.53;;;11.30;99.90;;;;;;4954802;28;20047;-67
2023/04/12 06:58:47;;;;;;;2.10;1.88;;;11.10;99.90;;;;;;4970821;28;20077;-67
2023/04/12 07:01:13;;;;;;;1.77;1.30;;;11.00;99.90;;;;;;4959486;28;20189;-67
2023/04/12 07:03:39;;;;;;;3.03;2.72;;;10.90;99.90;;;;;;4976882;28;20122;-67
2023/04/12 07:06:05;;;;;;;1.70;1.50;;;10.80;99.90;;;;;;4967060;28;20038;-67
2023/04/12 07:08:35;;;;;;;2.92;1.25;;;10.80;99.90;;;;;;4973594;28;20145;-67
2023/04/12 07:11:01;;;;;;;1.85;1.38;;;11.00;99.90;;;;;;4982449;28;20707;-68
2023/04/12 07:13:26;;;;;;;1.52;1.10;;;11.10;99.90;;;;;;4973778;28;20665;-68
2023/04/12 07:15:53;;;;;;;0.82;0.82;;;11.00;99.90;;;;;;4971341;28;20045;-67
2023/04/12 07:18:19;;;;;;;1.77;1.60;;;10.90;99.90;;;;;;4958765;28;20044;-67
2023/04/12 07:20:49;;;;;;;3.00;1.50;;;11.10;99.90;;;;;;4959988;28;20184;-67
2023/04/12 07:23:15;;;;;;;1.27;1.08;;;11.10;99.90;;;;;;4967047;28;20635;-67
2023/04/12 07:25:41;;;;;;;1.83;1.27;;;11.20;99.90;;;;;;4969247;28;20403;-67
2023/04/12 07:28:07;;;;;;;4.70;1.55;;;11.30;99.90;;;;;;4967277;28;20034;-67
2023/04/12 07:30:32;;;;;;;2.00;1.58;;;11.40;99.90;;;;;;4966512;28;20034;-67
2023/04/12 07:33:02;;;;;;;1.15;1.02;;;11.40;99.90;;;;;;4978989;28;20172;-66
2023/04/12 07:35:27;;;;;;;3.10;1.00;;;11.40;99.90;;;;;;4973279;28;20057;-66
2023/04/12 07:37:53;;;;;;;2.90;1.35;;;11.50;99.90;;;;;;4974820;28;20035;-67
2023/04/12 07:40:19;;;;;;;2.88;1.70;;;11.80;99.90;;;;;;4971155;28;20515;-66
2023/04/12 07:42:45;;;;;;;1.98;1.20;;;11.80;99.90;;;;;;4968484;28;20042;-67
2023/04/12 07:45:10;;;;;;;1.83;1.02;;;11.80;99.90;;;;;;4969287;28;20046;-66
2023/04/12 07:47:36;;;;;;;2.53;1.30;;;11.90;99.90;;;;;;4965238;28;20544;-65
2023/04/12 07:50:03;;;;;;;3.33;1.10;;;11.90;99.90;;;;;;4967809;28;20096;-65
2023/04/12 07:52:31;;;;;;;2.90;1.30;;;11.80;99.90;;;;;;4964349;28;20068;-65
2023/04/12 07:54:56;;;;;;;3.70;1.55;;;11.70;99.90;;;;;;4959417;28;20062;-64
2023/04/12 07:57:23;;;;;;;1.90;1.10;;;11.70;99.90;;;;;;4965410;28;20668;-64
2023/04/12 07:59:48;;;;;;;2.10;1.60;;;11.80;99.90;;;;;;4969591;28;20579;-64
2023/04/12 08:02:23;;;;;;;1.50;1.40;;;11.80;99.90;;;;;;4962184;28;20045;-66
2023/04/12 08:04:57;;;;;;;1.90;1.58;;;11.70;99.90;;;;;;4959346;28;20042;-65
2023/04/12 08:07:23;;;;;;;1.83;1.45;;;11.70;99.90;;;;;;4960571;28;20053;-64
2023/04/12 08:09:49;;;;;;;1.40;1.20;;;11.70;99.90;;;;;;4965998;28;20042;-65
2023/04/12 08:12:15;;;;;;;2.33;1.95;;;11.70;99.90;;;;;;4961331;28;20105;-65
2023/04/12 08:14:41;;;;;;;3.30;1.63;;;11.80;99.90;;;;;;4968399;28;20042;-65
2023/04/12 08:17:06;;;;;;;2.35;1.55;;;11.80;99.90;;;;;;4970045;28;20041;-65
2023/04/12 08:19:33;;;;;;;2.63;1.05;;;11.70;99.90;;;;;;4967063;28;20106;-65
2023/04/12 08:22:00;;;;;;;3.03;1.42;;;11.80;99.90;;;;;;4976758;28;20030;-65
2023/04/12 08:24:26;;;;;;;7.65;1.30;;;11.90;99.90;;;;;;4974886;28;20073;-65
2023/04/12 08:26:52;;;;;;;1.67;1.40;;;12.00;99.90;;;;;;4971673;28;20400;-65
2023/04/12 08:29:17;;;;;;;2.33;1.20;;;12.10;99.90;;;;;;4977572;28;20105;-65
2023/04/12 08:31:43;;;;;;;2.22;1.55;;;12.00;99.90;;;;;;4968027;28;20059;-65
2023/04/12 08:34:09;;;;;;;1.80;1.40;;;11.80;99.90;;;;;;4973846;28;20046;-65
2023/04/12 08:36:34;;;;;;;1.92;1.38;;;11.80;99.90;;;;;;4970209;28;20041;-64
2023/04/12 08:39:00;;;;;;;2.63;1.08;;;11.70;99.90;;;;;;4977745;28;20046;-64
2023/04/12 08:41:26;;;;;;;1.75;1.08;;;11.90;99.90;;;;;;4979149;28;20034;-65
2023/04/12 08:43:55;;;;;;;1.85;0.80;;;12.10;99.90;;;;;;4972295;28;20046;-65
2023/04/12 08:46:21;;;;;;;1.70;0.75;;;12.30;99.90;;;;;;4975852;28;20034;-65
2023/04/12 08:48:49;;;;;;;1.00;0.60;;;12.60;99.90;;;;;;4975629;28;20092;-66
2023/04/12 08:51:19;;;;;;;2.20;1.02;;;12.90;99.90;;;;;;4975514;28;20046;-65
2023/04/12 08:53:46;;;;;;;3.00;0.90;;;13.10;99.90;;;;;;4968703;28;20030;-65
2023/04/12 08:56:13;;;;;;;2.28;0.98;;;13.10;99.90;;;;;;4976314;28;20145;-67
2023/04/12 08:58:49;;;;;;;2.03;0.57;;;13.10;99.90;;;;;;4968959;28;20046;-66
2023/04/12 09:01:17;;;;;;;0.73;0.70;;;13.00;99.90;;;;;;4976714;28;20026;-66
2023/04/12 09:03:44;;;;;;;1.52;1.02;;;12.90;99.90;;;;;;4973023;28;20055;-68
2023/04/12 09:06:13;;;;;;;0.93;0.57;;;12.90;99.90;;;;;;4965571;28;20062;-68
2023/04/12 09:08:56;;;;;;;1.80;1.15;;;12.90;98.40;;;;;;4976759;28;20046;-67
2023/04/12 09:11:28;;;;;;;1.60;0.88;;;12.90;97.30;;;;;;4961433;28;20725;-68
2023/04/12 09:13:54;;;;;;;;;;;13.00;97.30;;;;;;4987442;28;20096;-67
2023/04/12 09:16:37;;;;;;;1.00;0.80;;;13.00;98.70;;;;;;4969936;28;19914;-68
2023/04/12 09:19:04;;;;;;;3.47;1.13;;;13.10;95.90;;;;;;4970912;28;20145;-67
2023/04/12 09:21:34;;;;;;;1.77;1.02;;;13.00;95.50;;;;;;4969604;28;20038;-65
2023/04/12 09:24:08;;;;;;;1.88;0.70;;;13.00;95.30;;;;;;4966337;28;20046;-65
2023/04/12 09:26:35;;;;;;;2.30;1.85;;;13.20;97.90;;;;;;4974404;28;20045;-65
2023/04/12 09:29:01;;;;;;;2.63;0.80;;;13.50;99.20;;;;;;4974803;28;20042;-66
2023/04/12 09:31:27;;;;;;;1.33;0.50;;;13.80;98.60;;;;;;4969183;28;20090;-66
2023/04/12 09:34:08;;;;;;;1.63;0.50;;;14.10;97.40;;;;;;4969660;28;20122;-66
2023/04/12 09:36:40;;;;;;;1.38;0.60;;;14.20;97.20;;;;;;4973771;28;20093;-67
2023/04/12 09:39:06;;;;;;;1.92;0.70;;;14.40;96.90;;;;;;4953904;28;20109;-66
2023/04/12 09:41:33;;;;;;;2.35;0.90;;;14.50;98.00;;;;;;4962400;28;20575;-66
2023/04/12 09:43:59;;;;;;;2.13;0.88;;;14.50;96.00;;;;;;4976446;28;20121;-66
2023/04/12 09:46:25;;;;;;;0.70;0.60;;;14.40;96.60;;;;;;4978262;28;20049;-66
2023/04/12 09:48:53;;;;;;;1.70;0.65;;;14.40;98.30;;;;;;4976742;28;20042;-66
2023/04/12 09:51:27;;;;;;;1.08;0.70;;;14.40;95.60;;;;;;4979558;28;20034;-67
2023/04/12 09:53:58;;;;;;;1.48;0.50;;;14.30;96.30;;;;;;4974688;28;20648;-67
2023/04/12 09:56:26;;;;;;;2.35;0.63;;;14.20;94.80;;;;;;4965038;28;20045;-67
2023/04/12 09:58:53;;;;;;;1.02;0.80;;;14.10;94.60;;;;;;4978649;28;20054;-67
2023/04/12 10:01:22;;;;;;;1.55;0.80;;;13.90;95.90;;;;;;4961502;28;20041;-66
2023/04/12 10:03:48;;;;;;;1.08;0.80;;;14.00;94.80;;;;;;4972746;28;20034;-66
2023/04/12 10:06:14;;;;;;;1.65;0.80;;;14.20;95.30;;;;;;4976528;28;20026;-65
2023/04/12 10:08:41;;;;;;;1.05;0.82;;;14.30;94.40;;;;;;4960823;28;20073;-66
2023/04/12 10:11:08;;;;;;;3.03;0.98;;;14.40;94.50;;;;;;4961684;28;20480;-66
2023/04/12 10:13:35;;;;;;;1.95;0.70;;;14.50;95.10;;;;;;4969987;28;20062;-67
2023/04/12 10:16:04;;;;;;;2.80;0.70;;;14.50;94.00;;;;;;4977161;28;20053;-66
2023/04/12 10:18:33;;;;;;;1.13;0.73;;;14.20;95.70;;;;;;4973526;28;20061;-65
2023/04/12 10:20:59;;;;;;;1.20;0.60;;;14.20;95.70;;;;;;4961552;28;20050;-66
2023/04/12 10:23:25;;;;;;;3.05;1.10;;;14.20;94.20;;;;;;4979513;28;20053;-65
2023/04/12 10:25:52;;;;;;;3.40;0.88;;;14.20;94.10;;;;;;4969546;28;20042;-65
2023/04/12 10:28:21;;;;;;;2.80;1.00;;;14.10;94.80;;;;;;4964812;28;20116;-66
2023/04/12 10:30:48;;;;;;;2.47;1.17;;;14.10;95.50;;;;;;4975962;28;20053;-66
2023/04/12 10:33:15;;;;;;;1.88;1.00;;;14.30;95.00;;;;;;4971453;28;20043;-66
2023/04/12 10:35:47;;;;;;;0.90;0.73;;;14.30;93.50;;;;;;4978003;28;20038;-66
2023/04/12 10:38:13;;;;;;;1.92;0.80;;;14.40;94.30;;;;;;4968496;28;20063;-67
2023/04/12 10:41:11;;;;;;;1.20;0.70;;;14.40;95.20;;;;;;4969346;28;20440;-67
2023/04/12 10:43:38;;;;;;;2.13;1.10;;;14.40;93.20;;;;;;4968647;28;20097;-67
2023/04/12 10:46:05;;;;;;;2.45;0.90;;;14.40;93.30;;;;;;4977729;28;20614;-67
2023/04/12 10:48:38;;;;;;;1.20;0.80;;;14.40;92.10;;;;;;4979649;28;20061;-67
2023/04/12 10:51:23;;;;;;;1.90;1.02;;;14.40;91.40;;;;;;4980462;28;20030;-66
2023/04/12 10:53:50;;;;;;;1.40;0.95;;;14.50;92.60;;;;;;4964225;28;21650;-66
2023/04/12 10:56:31;;;;;;;2.92;0.70;;;14.50;93.00;;;;;;4972478;28;20054;-66
2023/04/12 10:58:58;;;;;;;1.25;0.88;;;14.20;94.30;;;;;;4979821;28;20082;-67
2023/04/12 11:01:24;;;;;;;1.15;0.80;;;14.10;93.40;;;;;;4969981;28;20166;-65
2023/04/12 11:04:15;;;;;;;13.73;10.68;;;13.90;91.80;;;;;;4975876;28;20035;-65
2023/04/12 11:06:50;;;;;;;1.95;1.00;;;13.80;91.90;;;;;;4973876;28;20030;-65
2023/04/12 11:09:24;;;;;;;1.60;1.00;;;13.90;94.30;;;;;;4975082;28;20869;-65
2023/04/12 11:11:56;;;;;;;1.25;0.93;;;14.20;94.70;;;;;;4969574;28;20090;-65
2023/04/12 11:14:49;;;;;;;1.83;1.15;;;14.40;94.10;;;;;;4974984;28;20034;-66
2023/04/12 11:17:15;;;;;;;3.17;1.17;;;14.30;93.60;;;;;;4974202;28;20085;-66
2023/04/12 11:19:48;;;;;;;1.70;1.00;;;14.30;95.10;;;;;;4974866;28;20050;-66
2023/04/12 11:22:15;;;;;;;1.23;0.77;;;14.20;92.40;;;;;;4972022;28;20034;-65
2023/04/12 11:24:57;;;;;;;1.10;0.77;;;14.10;92.50;;;;;;4972266;28;20049;-66
2023/04/12 11:27:24;;;;;;;1.30;0.80;;;14.10;92.70;;;;;;4969919;28;20186;-66
2023/04/12 11:29:53;;;;;;;0.98;0.65;;;14.00;91.70;;;;;;4972081;28;20092;-66
2023/04/12 11:32:21;;;;;;;2.10;0.95;;;13.90;94.40;;;;;;4974861;28;20049;-66
2023/04/12 11:34:47;;;;;;;2.17;0.93;;;14.10;94.40;;;;;;4970499;28;20538;-66
2023/04/12 11:37:13;;;;;;;2.35;0.85;;;14.30;92.70;;;;;;4985085;28;20046;-68
2023/04/12 11:39:43;;;;;;;1.33;0.63;;;14.40;91.90;;;;;;4967625;28;20082;-68
2023/04/12 11:42:22;;;;;;;2.50;1.08;;;14.60;93.50;;;;;;4942174;28;20096;-68
2023/04/12 11:44:48;;;;;;;2.13;0.90;;;14.80;92.60;;;;;;4965819;28;20038;-68
2023/04/12 11:47:19;;;;;;;1.30;1.00;;;14.80;91.60;;;;;;4966036;28;20034;-68
2023/04/12 11:49:50;;;;;;;2.30;1.00;;;14.70;91.80;;;;;;4949920;28;20126;-70
2023/04/12 11:52:17;;;;;;;1.35;0.90;;;14.60;91.40;;;;;;4968608;28;20420;-70
2023/04/12 11:54:45;;;;;;;1.20;0.90;;;14.40;91.60;;;;;;4973017;28;20499;-69
2023/04/12 11:57:12;;;;;;;1.05;0.90;;;14.40;92.60;;;;;;4969269;28;21023;-71
2023/04/12 11:59:38;;;;;;;1.48;0.80;;;14.70;91.70;;;;;;4963588;28;20120;-71
2023/04/12 12:02:06;;;;;;;2.45;0.90;;;15.00;92.50;;;;;;4968835;28;20031;-70
2023/04/12 12:04:32;;;;;;;7.18;1.60;;;15.00;92.80;;;;;;4960257;28;20080;-67
2023/04/12 12:06:59;;;;;;;4.25;1.20;;;14.90;91.70;;;;;;4960966;28;20117;-70
2023/04/12 12:09:25;;;;;;;1.95;0.98;;;14.90;90.30;;;;;;4972699;28;20435;-70
2023/04/12 12:11:52;;;;;;;1.42;1.00;;;15.00;88.10;;;;;;4971589;28;20042;-70
2023/04/12 12:14:23;;;;;;;2.53;1.00;;;15.00;87.90;;;;;;4965740;28;20096;-70
2023/04/12 12:16:57;;;;;;;2.80;0.93;;;15.10;90.40;;;;;;4969782;28;20053;-69
2023/04/12 12:19:28;;;;;;;12.32;2.70;;;15.30;91.80;;;;;;4969268;28;20471;-70
2023/04/12 12:22:13;;;;;;;175.63;33.65;;;15.40;90.60;;;;;;4972012;28;20034;-70
2023/04/12 12:24:59;;;;;;;75.95;14.18;;;15.30;91.50;;;;;;4959809;28;20599;-70
2023/04/12 12:27:36;;;;;;;94.50;20.52;;;15.50;90.90;;;;;;4964365;28;20038;-69
2023/04/12 12:30:05;;;;;;;61.00;12.18;;;15.80;90.70;;;;;;4955751;28;20117;-70
2023/04/12 12:32:33;;;;;;;10.63;2.42;;;15.80;90.00;;;;;;4966779;28;20760;-70
2023/04/12 12:34:59;;;;;;;80.30;12.05;;;15.80;89.40;;;;;;4965615;28;20034;-69
2023/04/12 12:37:26;;;;;;;39.00;7.95;;;15.90;89.00;;;;;;4972375;28;20088;-70
2023/04/12 12:40:10;;;;;;;27.17;6.10;;;15.80;89.00;;;;;;4981607;28;20226;-69
2023/04/12 12:42:36;;;;;;;67.80;12.05;;;15.60;87.70;;;;;;4955072;28;20030;-69
2023/04/12 12:45:03;;;;;;;8.98;1.77;;;15.50;89.10;;;;;;4954186;28;20187;-69
2023/04/12 12:47:30;;;;;;;2.85;1.10;;;15.40;88.60;;;;;;4969691;28;20039;-69
2023/04/12 12:49:56;;;;;;;21.27;5.43;;;15.50;85.60;;;;;;4957092;28;20109;-70
2023/04/12 12:52:22;;;;;;;7.45;1.58;;;15.50;88.70;;;;;;4972687;28;20058;-70
2023/04/12 12:54:48;;;;;;;2.53;0.70;;;15.50;88.20;;;;;;4966548;28;20122;-70